createdAt,value
2022-12-06T00:01:33.206Z,3.80
2022-12-06T00:04:04.061Z,3.80
2022-12-06T00:06:38.062Z,3.80
2022-12-06T00:09:07.197Z,3.80
2022-12-06T00:11:37.851Z,3.80
2022-12-06T00:14:08.233Z,3.80
2022-12-06T00:16:37.852Z,3.80
2022-12-06T00:19:07.179Z,3.80
2022-12-06T00:21:38.320Z,3.80
2022-12-06T00:24:09.372Z,3.80
2022-12-06T00:26:39.337Z,3.80
2022-12-06T00:29:08.944Z,3.80
2022-12-06T00:31:37.270Z,3.80
2022-12-06T00:34:06.101Z,3.80
2022-12-06T00:36:38.000Z,3.80
2022-12-06T00:39:08.471Z,3.80
2022-12-06T00:41:36.954Z,3.80
2022-12-06T00:44:06.174Z,3.90
2022-12-06T00:46:35.208Z,3.80
2022-12-06T00:49:06.516Z,3.90
2022-12-06T00:51:37.393Z,3.90
2022-12-06T00:54:06.521Z,3.90
2022-12-06T00:56:37.071Z,3.80
2022-12-06T00:59:06.687Z,3.90
2022-12-06T01:01:36.387Z,3.90
2022-12-06T01:04:07.743Z,3.90
2022-12-06T01:06:38.539Z,3.90
2022-12-06T01:09:10.550Z,3.90
2022-12-06T01:11:38.897Z,3.90
2022-12-06T01:14:07.968Z,3.90
2022-12-06T01:16:36.483Z,3.90
2022-12-06T01:19:07.041Z,3.90
2022-12-06T01:21:37.148Z,3.90
2022-12-06T01:24:06.360Z,3.80
2022-12-06T01:26:36.178Z,3.90
2022-12-06T01:29:05.509Z,3.90
2022-12-06T01:31:38.822Z,3.90
2022-12-06T01:34:09.133Z,3.90
2022-12-06T01:36:38.698Z,3.90
2022-12-06T01:39:10.732Z,3.90
2022-12-06T01:41:40.163Z,3.90
2022-12-06T01:44:09.200Z,3.90
2022-12-06T01:46:42.767Z,3.90
2022-12-06T01:49:18.647Z,3.90
2022-12-06T01:51:52.025Z,3.90
2022-12-06T01:54:22.532Z,3.90
2022-12-06T01:56:53.160Z,3.90
2022-12-06T01:59:24.019Z,3.90
2022-12-06T02:01:52.873Z,3.90
2022-12-06T02:04:22.739Z,3.90
2022-12-06T02:06:55.189Z,3.90
2022-12-06T02:09:24.443Z,3.90
2022-12-06T02:11:52.860Z,3.90
2022-12-06T02:14:25.046Z,3.90
2022-12-06T02:17:05.634Z,3.90
2022-12-06T02:20:08.916Z,3.90
2022-12-06T02:23:30.946Z,3.90
2022-12-06T02:26:18.411Z,3.90
2022-12-06T02:29:35.602Z,3.90
2022-12-06T02:32:12.377Z,3.90
2022-12-06T02:34:47.566Z,3.90
2022-12-06T02:37:21.532Z,4.00
2022-12-06T02:39:53.836Z,3.90
2022-12-06T02:42:26.245Z,4.00
2022-12-06T02:44:56.623Z,4.00
2022-12-06T02:47:32.841Z,4.00
2022-12-06T02:50:03.122Z,3.90
2022-12-06T02:52:33.410Z,3.90
2022-12-06T02:55:02.933Z,3.90
2022-12-06T02:57:40.921Z,4.00
2022-12-06T03:00:35.770Z,3.90
2022-12-06T03:03:24.667Z,4.00
2022-12-06T03:06:16.743Z,4.00
2022-12-06T03:08:58.581Z,3.90
2022-12-06T03:11:36.181Z,4.00
2022-12-06T03:14:11.013Z,3.90
2022-12-06T03:16:48.658Z,4.00
2022-12-06T03:19:22.615Z,4.00
2022-12-06T03:21:59.069Z,4.00
2022-12-06T03:24:31.052Z,4.00
2022-12-06T03:27:02.909Z,4.00
2022-12-06T03:29:33.709Z,4.00
2022-12-06T03:32:04.175Z,4.00
2022-12-06T03:34:37.475Z,4.00
2022-12-06T03:37:10.510Z,4.00
2022-12-06T03:39:45.314Z,4.00
2022-12-06T03:42:13.884Z,4.00
2022-12-06T03:44:42.663Z,4.00
2022-12-06T03:47:16.329Z,4.00
2022-12-06T03:49:49.369Z,4.00
2022-12-06T03:52:17.642Z,4.00
2022-12-06T03:54:46.190Z,4.00
2022-12-06T03:57:15.056Z,4.00
2022-12-06T03:59:43.631Z,4.00
2022-12-06T04:02:11.990Z,4.00
2022-12-06T04:04:41.523Z,4.00
2022-12-06T04:07:13.257Z,4.00
2022-12-06T04:09:56.345Z,3.90
2022-12-06T04:12:42.992Z,3.90
2022-12-06T04:15:12.179Z,4.00
2022-12-06T04:17:58.315Z,4.00
2022-12-06T04:20:28.386Z,4.00
2022-12-06T04:23:06.304Z,4.00
2022-12-06T04:25:36.229Z,4.00
2022-12-06T04:28:23.440Z,4.00
2022-12-06T04:31:09.757Z,4.00
2022-12-06T04:33:55.371Z,4.00
2022-12-06T04:36:41.342Z,4.00
2022-12-06T04:39:10.974Z,4.10
2022-12-06T04:41:58.037Z,4.00
2022-12-06T04:44:26.459Z,4.00
2022-12-06T04:46:55.057Z,4.10
2022-12-06T04:49:26.458Z,4.00
2022-12-06T04:51:55.205Z,4.00
2022-12-06T04:54:25.339Z,4.20
2022-12-06T04:56:54.490Z,4.10
2022-12-06T04:59:22.716Z,4.10
2022-12-06T05:01:51.456Z,4.10
2022-12-06T05:04:19.882Z,4.10
2022-12-06T05:06:48.737Z,4.10
2022-12-06T05:09:17.329Z,4.10
2022-12-06T05:11:47.458Z,4.10
2022-12-06T05:14:15.811Z,4.10
2022-12-06T05:16:44.530Z,4.10
2022-12-06T05:19:13.776Z,4.10
2022-12-06T05:21:42.683Z,4.10
2022-12-06T05:24:11.265Z,4.10
2022-12-06T05:26:39.856Z,4.10
2022-12-06T05:29:09.880Z,4.10
2022-12-06T05:31:38.604Z,4.10
2022-12-06T05:34:07.206Z,4.10
2022-12-06T05:36:36.045Z,4.10
2022-12-06T05:39:04.688Z,4.10
2022-12-06T05:41:33.206Z,4.10
2022-12-06T05:44:01.435Z,4.10
2022-12-06T05:46:31.289Z,4.10
2022-12-06T05:48:59.524Z,4.10
2022-12-06T05:51:28.074Z,4.20
2022-12-06T05:53:56.392Z,4.10
2022-12-06T05:56:25.170Z,4.20
2022-12-06T05:58:53.452Z,4.20
2022-12-06T06:01:21.970Z,4.20
2022-12-06T06:03:51.592Z,4.20
2022-12-06T06:06:20.161Z,4.20
2022-12-06T06:08:48.496Z,4.20
2022-12-06T06:11:17.220Z,4.20
2022-12-06T06:13:45.567Z,4.20
2022-12-06T06:16:14.146Z,4.30
2022-12-06T06:18:42.374Z,4.30
2022-12-06T06:21:12.327Z,4.30
2022-12-06T06:23:41.164Z,4.30
2022-12-06T06:26:10.236Z,4.30
2022-12-06T06:28:39.350Z,4.30
2022-12-06T06:31:08.478Z,4.30
2022-12-06T06:33:37.353Z,4.40
2022-12-06T06:36:06.604Z,4.30
2022-12-06T06:38:36.145Z,4.30
2022-12-06T06:41:05.269Z,4.30
2022-12-06T06:43:33.537Z,4.30
2022-12-06T06:46:03.523Z,4.30
2022-12-06T06:48:33.782Z,4.30
2022-12-06T06:51:04.315Z,4.40
2022-12-06T06:53:32.570Z,4.40
2022-12-06T06:56:02.701Z,4.40
2022-12-06T06:58:30.976Z,4.40
2022-12-06T07:01:01.634Z,4.40
2022-12-06T07:03:30.504Z,4.40
2022-12-06T07:06:01.136Z,4.40
2022-12-06T07:08:31.013Z,4.40
2022-12-06T07:10:59.941Z,4.40
2022-12-06T07:13:31.526Z,4.40
2022-12-06T07:16:00.218Z,4.40
2022-12-06T07:18:28.663Z,4.40
2022-12-06T07:21:02.017Z,4.50
2022-12-06T07:23:30.631Z,4.40
2022-12-06T07:26:03.405Z,4.40
2022-12-06T07:28:33.568Z,4.50
2022-12-06T07:31:09.895Z,4.50
2022-12-06T07:33:38.950Z,4.40
2022-12-06T07:36:13.609Z,4.40
2022-12-06T07:38:43.535Z,4.50
2022-12-06T07:41:40.165Z,4.50
2022-12-06T07:44:29.963Z,4.50
2022-12-06T07:46:58.901Z,4.50
2022-12-06T07:49:27.540Z,4.50
2022-12-06T07:51:57.057Z,4.50
2022-12-06T07:54:26.189Z,4.50
2022-12-06T07:56:56.382Z,4.50
2022-12-06T07:59:27.439Z,4.50
2022-12-06T08:01:56.187Z,4.50
2022-12-06T08:04:24.676Z,4.50
2022-12-06T08:06:54.218Z,4.50
2022-12-06T08:09:22.608Z,4.50
2022-12-06T08:11:51.688Z,4.50
2022-12-06T08:14:20.048Z,4.60
2022-12-06T08:16:49.991Z,4.60
2022-12-06T08:19:18.311Z,4.60
2022-12-06T08:21:47.057Z,4.60
2022-12-06T08:24:15.621Z,4.60
2022-12-06T08:26:44.181Z,4.60
2022-12-06T08:29:12.510Z,4.60
2022-12-06T08:31:42.023Z,4.60
2022-12-06T08:34:11.710Z,4.60
2022-12-06T08:36:41.280Z,4.60
2022-12-06T08:39:11.341Z,4.70
2022-12-06T08:41:58.031Z,4.70
2022-12-06T08:44:28.013Z,4.70
2022-12-06T08:46:57.768Z,4.70
2022-12-06T08:49:28.877Z,4.70
2022-12-06T08:51:57.677Z,4.70
2022-12-06T08:54:26.966Z,4.70
2022-12-06T08:56:55.689Z,4.80
2022-12-06T08:59:24.277Z,4.80
2022-12-06T09:01:52.994Z,4.80
2022-12-06T09:04:21.317Z,4.80
2022-12-06T09:06:51.506Z,4.80
2022-12-06T09:09:20.404Z,4.80
2022-12-06T09:11:51.253Z,4.80
2022-12-06T09:14:22.296Z,4.80
2022-12-06T09:16:52.482Z,4.80
2022-12-06T09:19:21.303Z,4.80
2022-12-06T09:21:51.351Z,4.90
2022-12-06T09:24:20.343Z,4.80
2022-12-06T09:26:49.506Z,4.90
2022-12-06T09:29:18.661Z,4.90
2022-12-06T09:31:47.726Z,4.90
2022-12-06T09:34:16.971Z,4.90
2022-12-06T09:36:48.905Z,4.90
2022-12-06T09:39:22.480Z,4.90
2022-12-06T09:42:19.502Z,4.90
2022-12-06T09:45:11.478Z,4.90
2022-12-06T09:47:53.531Z,4.90
2022-12-06T09:50:28.711Z,5.00
2022-12-06T09:53:12.365Z,5.00
2022-12-06T09:55:50.988Z,5.00
2022-12-06T09:58:31.007Z,5.10
2022-12-06T10:01:11.512Z,5.00
2022-12-06T10:03:53.049Z,5.00
2022-12-06T10:06:24.112Z,5.10
2022-12-06T10:09:06.863Z,5.10
2022-12-06T10:11:54.737Z,5.10
2022-12-06T10:14:34.385Z,5.10
2022-12-06T10:17:12.874Z,5.10
2022-12-06T10:19:53.779Z,5.10
2022-12-06T10:22:37.179Z,5.10
2022-12-06T10:25:12.320Z,5.10
2022-12-06T10:27:50.726Z,5.10
2022-12-06T10:30:21.452Z,5.10
2022-12-06T10:32:54.987Z,5.10
2022-12-06T10:35:40.580Z,5.30
2022-12-06T10:38:23.157Z,5.10
2022-12-06T10:40:59.140Z,5.20
2022-12-06T10:43:37.498Z,5.10
2022-12-06T10:46:29.823Z,5.10
2022-12-06T10:49:05.648Z,5.10
2022-12-06T10:51:40.844Z,5.20
2022-12-06T10:54:23.289Z,5.20
2022-12-06T10:56:54.755Z,5.20
2022-12-06T10:59:31.835Z,5.20
2022-12-06T11:02:13.812Z,5.20
2022-12-06T11:04:44.644Z,5.20
2022-12-06T11:07:17.785Z,5.20
2022-12-06T11:09:50.254Z,5.20
2022-12-06T11:12:30.959Z,5.20
2022-12-06T11:15:13.428Z,5.20
2022-12-06T11:17:48.023Z,5.20
2022-12-06T11:20:23.853Z,5.20
2022-12-06T11:23:07.236Z,5.20
2022-12-06T11:25:46.026Z,5.20
2022-12-06T11:28:32.688Z,5.20
2022-12-06T11:31:02.832Z,5.20
2022-12-06T11:33:33.558Z,5.10
2022-12-06T11:36:03.945Z,5.20
2022-12-06T11:38:34.666Z,5.20
2022-12-06T11:41:06.270Z,5.20
2022-12-06T11:43:36.041Z,5.20
2022-12-06T11:46:07.905Z,5.30
2022-12-06T11:48:37.405Z,5.40
2022-12-06T11:51:06.654Z,5.40
2022-12-06T11:53:41.847Z,5.50
2022-12-06T11:56:21.147Z,5.50
2022-12-06T11:59:03.667Z,5.60
2022-12-06T12:01:42.876Z,5.70
2022-12-06T12:04:40.016Z,5.90
2022-12-06T12:07:17.059Z,6.00
2022-12-06T12:09:52.860Z,6.20
2022-12-06T12:12:23.596Z,6.30
2022-12-06T12:14:58.868Z,6.40
2022-12-06T12:17:33.037Z,6.50
2022-12-06T12:20:05.418Z,6.60
2022-12-06T12:22:38.878Z,6.60
2022-12-06T12:25:25.606Z,6.60
2022-12-06T12:27:55.198Z,6.60
2022-12-06T12:30:31.471Z,6.50
2022-12-06T12:33:20.415Z,6.40
2022-12-06T12:35:51.981Z,6.40
2022-12-06T12:38:26.540Z,6.40
2022-12-06T12:40:57.789Z,6.30
2022-12-06T12:43:28.586Z,6.20
2022-12-06T12:46:14.999Z,6.20
2022-12-06T12:48:47.012Z,6.20
2022-12-06T12:51:30.059Z,6.10
2022-12-06T12:54:01.593Z,6.10
2022-12-06T12:56:33.455Z,6.10
2022-12-06T12:59:03.861Z,6.10
2022-12-06T13:01:39.870Z,6.10
2022-12-06T13:04:28.305Z,6.00
2022-12-06T13:07:00.868Z,6.10
2022-12-06T13:09:33.435Z,6.10
2022-12-06T13:12:06.851Z,6.20
2022-12-06T13:14:36.991Z,6.20
2022-12-06T13:17:09.483Z,6.20
2022-12-06T13:19:43.108Z,6.10
2022-12-06T13:22:16.861Z,6.10
2022-12-06T13:24:48.229Z,6.00
2022-12-06T13:27:20.771Z,6.00
2022-12-06T13:30:01.103Z,6.00
2022-12-06T13:32:37.339Z,6.00
2022-12-06T13:35:17.527Z,5.90
2022-12-06T13:37:52.275Z,5.90
2022-12-06T13:40:40.347Z,5.80
2022-12-06T13:43:49.505Z,5.80
2022-12-06T13:46:29.567Z,5.70
2022-12-06T13:48:59.833Z,5.70
2022-12-06T13:51:47.721Z,5.60
2022-12-06T13:54:31.981Z,5.60
2022-12-06T13:57:04.257Z,5.50
2022-12-06T13:59:40.824Z,5.50
2022-12-06T14:02:49.105Z,5.50
2022-12-06T14:08:26.458Z,5.40
2022-12-06T14:11:13.396Z,5.30
2022-12-06T14:13:43.400Z,5.30
2022-12-06T14:16:19.197Z,5.30
2022-12-06T14:18:47.724Z,5.30
2022-12-06T14:21:23.995Z,5.30
2022-12-06T14:23:53.982Z,5.30
2022-12-06T14:26:25.780Z,5.20
2022-12-06T14:28:55.825Z,5.30
2022-12-06T14:31:30.240Z,5.20
2022-12-06T14:33:58.903Z,5.10
2022-12-06T14:36:30.485Z,5.20
2022-12-06T14:39:02.719Z,5.10
2022-12-06T14:41:51.873Z,5.20
2022-12-06T14:44:21.860Z,5.20
2022-12-06T14:46:51.133Z,5.20
2022-12-06T14:49:39.621Z,5.10
2022-12-06T14:52:20.402Z,5.20
2022-12-06T14:54:51.845Z,5.10
2022-12-06T14:57:25.252Z,5.10
2022-12-06T15:03:26.466Z,5.10
2022-12-06T15:06:11.743Z,5.10
2022-12-06T15:08:41.725Z,5.10
2022-12-06T15:11:45.420Z,5.10
2022-12-06T15:14:16.247Z,5.10
2022-12-06T15:16:47.695Z,5.10
2022-12-06T15:19:17.782Z,5.10
2022-12-06T15:21:46.026Z,5.10
2022-12-06T15:24:19.542Z,5.10
2022-12-06T15:26:49.990Z,5.00
2022-12-06T15:29:19.017Z,5.00
2022-12-06T15:31:50.522Z,5.10
2022-12-06T15:34:26.803Z,5.00
2022-12-06T15:37:29.870Z,5.00
2022-12-06T15:39:45.613Z,5.00
2022-12-06T15:42:19.362Z,4.90
2022-12-06T15:44:49.939Z,5.00
2022-12-06T15:47:19.721Z,5.00
2022-12-06T15:49:50.934Z,5.00
2022-12-06T15:52:23.136Z,5.00
2022-12-06T15:54:52.362Z,5.00
2022-12-06T15:57:22.094Z,5.00
2022-12-06T15:59:50.691Z,5.00
2022-12-06T16:02:19.714Z,5.00
2022-12-06T16:04:50.977Z,5.00
2022-12-06T16:07:19.680Z,5.00
2022-12-06T16:09:49.043Z,5.00
2022-12-06T16:12:17.681Z,5.00
2022-12-06T16:14:47.908Z,5.00
2022-12-06T16:17:16.276Z,5.00
2022-12-06T16:20:02.576Z,5.10
2022-12-06T16:22:48.578Z,5.20
2022-12-06T16:25:17.149Z,5.30
2022-12-06T16:27:45.576Z,5.40
2022-12-06T16:30:16.633Z,5.50
2022-12-06T16:32:44.956Z,5.60
2022-12-06T16:35:13.578Z,5.80
2022-12-06T16:37:42.179Z,5.90
2022-12-06T16:40:19.823Z,6.00
2022-12-06T16:42:48.256Z,6.10
2022-12-06T16:45:18.548Z,6.10
2022-12-06T16:47:47.560Z,6.20
2022-12-06T16:50:24.565Z,6.20
2022-12-06T16:52:53.344Z,6.30
2022-12-06T16:55:22.121Z,6.40
2022-12-06T16:57:50.685Z,6.40
2022-12-06T17:00:21.518Z,6.40
2022-12-06T17:02:50.752Z,6.50
2022-12-06T17:05:22.300Z,6.40
2022-12-06T17:07:50.920Z,6.40
2022-12-06T17:10:20.997Z,6.50
2022-12-06T17:12:49.848Z,6.50
2022-12-06T17:15:22.492Z,6.50
2022-12-06T17:17:51.134Z,6.50
2022-12-06T17:20:20.583Z,6.50
2022-12-06T17:22:55.056Z,6.50
2022-12-06T17:25:24.009Z,6.50
2022-12-06T17:27:52.428Z,6.50
2022-12-06T17:30:23.425Z,6.50
2022-12-06T17:32:52.022Z,6.50
2022-12-06T17:35:20.622Z,6.50
2022-12-06T17:37:48.923Z,6.40
2022-12-06T17:40:17.660Z,6.40
2022-12-06T17:42:59.918Z,6.40
2022-12-06T17:45:30.167Z,6.40
2022-12-06T17:47:58.531Z,6.40
2022-12-06T17:50:27.482Z,6.40
2022-12-06T17:52:56.069Z,6.40
2022-12-06T17:55:25.071Z,6.30
2022-12-06T17:57:53.683Z,6.30
2022-12-06T18:00:22.957Z,6.30
2022-12-06T18:02:52.770Z,6.30
2022-12-06T18:05:21.731Z,6.20
2022-12-06T18:07:51.736Z,6.20
2022-12-06T18:10:20.588Z,6.20
2022-12-06T18:12:48.863Z,6.30
2022-12-06T18:15:35.044Z,6.20
2022-12-06T18:18:05.223Z,6.20
2022-12-06T18:20:34.218Z,6.10
2022-12-06T18:23:02.495Z,6.10
2022-12-06T18:25:31.279Z,6.10
2022-12-06T18:27:59.663Z,6.10
2022-12-06T18:30:28.344Z,6.10
2022-12-06T18:32:56.632Z,6.10
2022-12-06T18:35:27.109Z,6.00
2022-12-06T18:37:56.799Z,6.00
2022-12-06T18:40:25.323Z,6.00
2022-12-06T18:42:53.740Z,6.00
2022-12-06T18:45:22.406Z,5.90
2022-12-06T18:47:50.676Z,5.90
2022-12-06T18:50:19.530Z,5.90
2022-12-06T18:52:49.193Z,5.90
2022-12-06T18:55:18.123Z,5.80
2022-12-06T18:57:46.554Z,5.80
2022-12-06T19:00:16.150Z,5.80
2022-12-06T19:02:44.516Z,5.80
2022-12-06T19:05:13.473Z,5.80
2022-12-06T19:07:42.642Z,5.80
2022-12-06T19:10:12.830Z,5.80
2022-12-06T19:12:41.082Z,5.80
2022-12-06T19:15:11.428Z,5.80
2022-12-06T19:17:39.869Z,5.70
2022-12-06T19:20:09.545Z,5.70
2022-12-06T19:22:38.334Z,5.70
2022-12-06T19:25:07.720Z,5.70
2022-12-06T19:27:37.451Z,5.70
2022-12-06T19:30:08.342Z,5.60
2022-12-06T19:32:37.254Z,5.60
2022-12-06T19:35:08.469Z,5.50
2022-12-06T19:37:37.347Z,5.60
2022-12-06T19:40:06.817Z,5.50
2022-12-06T19:42:55.117Z,5.50
2022-12-06T19:45:25.530Z,5.60
2022-12-06T19:47:53.912Z,5.50
2022-12-06T19:50:22.600Z,5.50
2022-12-06T19:52:50.863Z,5.50
2022-12-06T19:55:19.520Z,5.50
2022-12-06T19:57:49.292Z,5.40
2022-12-06T20:00:22.560Z,5.40
2022-12-06T20:02:51.386Z,5.40
2022-12-06T20:05:20.416Z,5.40
2022-12-06T20:07:48.786Z,5.40
2022-12-06T20:10:17.483Z,5.40
2022-12-06T20:12:46.669Z,5.40
2022-12-06T20:15:16.705Z,5.40
2022-12-06T20:17:45.416Z,5.40
2022-12-06T20:20:14.119Z,5.30
2022-12-06T20:22:43.085Z,5.30
2022-12-06T20:25:12.145Z,5.30
2022-12-06T20:28:00.448Z,5.30
2022-12-06T20:30:31.896Z,5.30
2022-12-06T20:33:00.562Z,5.30
2022-12-06T20:35:29.423Z,5.20
2022-12-06T20:37:57.794Z,5.20
2022-12-06T20:40:31.203Z,5.20
2022-12-06T20:42:59.982Z,5.20
2022-12-06T20:45:30.112Z,5.20
2022-12-06T20:47:58.545Z,5.20
2022-12-06T20:50:27.540Z,5.20
2022-12-06T20:52:55.789Z,5.20
2022-12-06T20:55:24.427Z,5.30
2022-12-06T20:57:52.851Z,5.20
2022-12-06T21:00:22.432Z,5.10
2022-12-06T21:02:52.650Z,5.20
2022-12-06T21:05:21.443Z,5.20
2022-12-06T21:07:49.810Z,5.20
2022-12-06T21:10:18.531Z,5.10
2022-12-06T21:12:46.986Z,5.20
2022-12-06T21:15:15.858Z,5.10
2022-12-06T21:17:44.242Z,5.10
2022-12-06T21:20:14.396Z,5.10
2022-12-06T21:22:42.948Z,5.10
2022-12-06T21:25:11.924Z,5.10
2022-12-06T21:27:40.217Z,5.10
2022-12-06T21:30:10.090Z,5.10
2022-12-06T21:32:38.418Z,5.10
2022-12-06T21:35:07.910Z,5.10
2022-12-06T21:37:37.991Z,5.10
2022-12-06T21:40:08.059Z,5.10
2022-12-06T21:42:37.097Z,5.10
2022-12-06T21:45:06.200Z,5.00
2022-12-06T21:47:34.552Z,5.00
2022-12-06T21:50:03.693Z,5.10
2022-12-06T21:52:32.612Z,5.00
2022-12-06T21:55:03.231Z,5.00
2022-12-06T21:57:34.075Z,5.00
2022-12-06T22:00:03.684Z,5.00
2022-12-06T22:02:32.503Z,5.00
2022-12-06T22:05:01.251Z,5.00
2022-12-06T22:07:29.736Z,4.90
2022-12-06T22:09:58.326Z,4.90
2022-12-06T22:12:28.770Z,4.90
2022-12-06T22:14:57.406Z,4.90
2022-12-06T22:17:26.027Z,4.90
2022-12-06T22:19:55.113Z,4.90
2022-12-06T22:22:23.736Z,5.00
2022-12-06T22:24:53.984Z,4.90
2022-12-06T22:27:22.302Z,4.90
2022-12-06T22:29:53.961Z,4.90
2022-12-06T22:32:22.238Z,4.80
2022-12-06T22:34:50.917Z,4.80
2022-12-06T22:37:21.881Z,4.80
2022-12-06T22:39:53.983Z,4.80
2022-12-06T22:42:22.214Z,4.80
2022-12-06T22:44:52.224Z,4.80
2022-12-06T22:47:20.838Z,4.70
2022-12-06T22:49:50.034Z,4.80
2022-12-06T22:52:18.383Z,4.70
2022-12-06T22:54:47.921Z,4.70
2022-12-06T22:57:16.477Z,4.70
2022-12-06T22:59:45.154Z,4.70
2022-12-06T23:02:14.830Z,4.70
2022-12-06T23:04:43.549Z,4.70
2022-12-06T23:07:12.145Z,4.70
2022-12-06T23:09:40.765Z,4.70
2022-12-06T23:12:09.214Z,4.70
2022-12-06T23:14:37.705Z,4.60
2022-12-06T23:17:06.131Z,4.70
2022-12-06T23:19:36.489Z,4.70
2022-12-06T23:22:04.849Z,4.70
2022-12-06T23:24:33.505Z,4.70
2022-12-06T23:27:01.785Z,4.70
2022-12-06T23:29:30.317Z,4.70
2022-12-06T23:31:58.966Z,4.60
2022-12-06T23:34:27.790Z,4.70
2022-12-06T23:36:57.502Z,4.60
2022-12-06T23:39:26.701Z,4.60
2022-12-06T23:41:54.979Z,4.60
2022-12-06T23:44:25.216Z,4.70
2022-12-06T23:46:54.026Z,4.60
2022-12-06T23:49:23.204Z,4.60
2022-12-06T23:51:51.867Z,4.60
2022-12-06T23:54:22.005Z,4.60
2022-12-06T23:56:50.286Z,4.60
2022-12-06T23:59:20.282Z,4.60
